createdAt,value
2023-04-15T00:02:00.233Z,49.59
2023-04-15T00:04:28.054Z,49.76
2023-04-15T00:06:54.958Z,49.88
2023-04-15T00:09:21.684Z,49.75
2023-04-15T00:11:48.248Z,49.87
2023-04-15T00:14:14.840Z,49.98
2023-04-15T00:16:41.661Z,50.37
2023-04-15T00:19:08.512Z,50.54
2023-04-15T00:21:35.089Z,47.12
2023-04-15T00:24:02.040Z,50.22
2023-04-15T00:26:28.680Z,50.73
2023-04-15T00:28:55.255Z,51.19
2023-04-15T00:31:22.099Z,51.18
2023-04-15T00:33:48.900Z,51.63
2023-04-15T00:36:15.652Z,47.45
2023-04-15T00:38:42.224Z,51.29
2023-04-15T00:41:11.044Z,51.67
2023-04-15T00:43:38.345Z,51.73
2023-04-15T00:46:06.110Z,52.22
2023-04-15T00:48:32.840Z,51.98
2023-04-15T00:50:59.484Z,52.15
2023-04-15T00:53:26.072Z,52.40
2023-04-15T00:55:52.930Z,52.22
2023-04-15T00:58:19.611Z,52.32
2023-04-15T01:00:46.904Z,52.13
2023-04-15T01:03:14.288Z,52.18
2023-04-15T01:05:41.805Z,52.36
2023-04-15T01:08:08.410Z,52.15
2023-04-15T01:10:36.120Z,52.26
2023-04-15T01:13:04.118Z,52.46
2023-04-15T01:15:32.228Z,52.61
2023-04-15T01:17:59.576Z,52.81
2023-04-15T01:20:27.661Z,52.67
2023-04-15T01:22:55.012Z,52.63
2023-04-15T01:25:34.936Z,51.41
2023-04-15T01:28:01.610Z,52.92
2023-04-15T01:30:28.169Z,52.56
2023-04-15T01:32:55.135Z,52.87
2023-04-15T01:35:22.695Z,53.05
2023-04-15T01:37:49.607Z,53.16
2023-04-15T01:40:16.745Z,53.18
2023-04-15T01:42:43.310Z,53.51
2023-04-15T01:45:10.225Z,52.94
2023-04-15T01:47:36.791Z,53.46
2023-04-15T01:50:03.541Z,53.08
2023-04-15T01:52:30.563Z,53.57
2023-04-15T01:54:57.288Z,53.17
2023-04-15T01:57:23.744Z,49.49
2023-04-15T01:59:50.283Z,53.03
2023-04-15T02:02:17.601Z,53.03
2023-04-15T02:04:44.844Z,53.49
2023-04-15T02:07:11.458Z,53.43
2023-04-15T02:09:38.796Z,53.56
2023-04-15T02:12:06.033Z,53.57
2023-04-15T02:14:32.732Z,53.49
2023-04-15T02:17:06.810Z,50.03
2023-04-15T02:19:36.761Z,53.22
2023-04-15T02:22:03.325Z,53.55
2023-04-15T02:24:30.831Z,53.27
2023-04-15T02:26:57.723Z,53.80
2023-04-15T02:29:24.403Z,53.61
2023-04-15T02:31:51.274Z,53.84
2023-04-15T02:34:17.916Z,53.67
2023-04-15T02:36:44.458Z,53.99
2023-04-15T02:39:12.881Z,53.81
2023-04-15T02:41:39.768Z,54.16
2023-04-15T02:44:11.239Z,53.88
2023-04-15T02:46:38.010Z,54.03
2023-04-15T02:49:04.619Z,54.10
2023-04-15T02:51:32.375Z,54.04
2023-04-15T02:53:59.224Z,54.41
2023-04-15T02:56:25.839Z,54.58
2023-04-15T02:58:52.438Z,54.27
2023-04-15T03:01:19.309Z,54.36
2023-04-15T03:03:45.947Z,54.57
2023-04-15T03:06:12.543Z,54.39
2023-04-15T03:08:39.113Z,54.43
2023-04-15T03:11:05.712Z,54.68
2023-04-15T03:13:32.300Z,54.41
2023-04-15T03:15:58.969Z,54.46
2023-04-15T03:18:25.648Z,54.72
2023-04-15T03:20:52.223Z,55.15
2023-04-15T03:23:18.822Z,55.14
2023-04-15T03:25:45.930Z,55.24
2023-04-15T03:28:12.574Z,55.21
2023-04-15T03:30:39.126Z,55.36
2023-04-15T03:33:05.759Z,55.17
2023-04-15T03:35:32.402Z,55.14
2023-04-15T03:37:58.911Z,55.27
2023-04-15T03:40:25.595Z,55.25
2023-04-15T03:42:52.114Z,55.76
2023-04-15T03:45:18.795Z,55.66
2023-04-15T03:47:45.621Z,55.94
2023-04-15T03:50:12.724Z,51.71
2023-04-15T03:52:39.399Z,55.26
2023-04-15T03:55:06.168Z,55.60
2023-04-15T03:57:32.764Z,51.65
2023-04-15T03:59:59.385Z,55.48
2023-04-15T04:02:26.176Z,55.80
2023-04-15T04:04:53.126Z,56.18
2023-04-15T04:07:19.779Z,56.13
2023-04-15T04:09:47.439Z,56.17
2023-04-15T04:12:14.308Z,56.40
2023-04-15T04:14:40.922Z,52.55
2023-04-15T04:17:07.642Z,55.89
2023-04-15T04:19:34.226Z,52.10
2023-04-15T04:22:01.139Z,56.12
2023-04-15T04:24:27.727Z,56.37
2023-04-15T04:26:54.361Z,56.32
2023-04-15T04:29:21.002Z,56.30
2023-04-15T04:31:48.867Z,56.64
2023-04-15T04:34:16.276Z,56.61
2023-04-15T04:36:42.852Z,56.75
2023-04-15T04:39:09.451Z,56.98
2023-04-15T04:41:36.141Z,56.78
2023-04-15T04:44:02.717Z,57.01
2023-04-15T04:46:29.328Z,56.74
2023-04-15T04:48:55.926Z,56.76
2023-04-15T04:51:22.629Z,57.00
2023-04-15T04:53:49.088Z,52.81
2023-04-15T04:56:15.693Z,56.66
2023-04-15T04:58:42.618Z,56.68
2023-04-15T05:01:09.392Z,57.28
2023-04-15T05:03:36.153Z,53.31
2023-04-15T05:06:06.240Z,57.06
2023-04-15T05:08:33.132Z,57.13
2023-04-15T05:10:59.730Z,57.42
2023-04-15T05:13:26.538Z,57.17
2023-04-15T05:15:53.475Z,53.09
2023-04-15T05:18:20.741Z,56.94
2023-04-15T05:20:47.335Z,57.33
2023-04-15T05:23:13.922Z,57.48
2023-04-15T05:25:40.694Z,57.58
2023-04-15T05:28:07.197Z,53.80
2023-04-15T05:30:33.943Z,57.35
2023-04-15T05:33:00.456Z,53.27
2023-04-15T05:35:27.316Z,57.10
2023-04-15T05:37:53.840Z,57.66
2023-04-15T05:40:20.901Z,57.51
2023-04-15T05:42:47.474Z,57.95
2023-04-15T05:45:14.115Z,54.00
2023-04-15T05:47:40.679Z,57.34
2023-04-15T05:50:07.481Z,57.56
2023-04-15T05:52:34.019Z,53.63
2023-04-15T05:55:00.635Z,57.71
2023-04-15T05:57:27.174Z,57.91
2023-04-15T05:59:53.827Z,57.67
2023-04-15T06:02:20.649Z,57.96
2023-04-15T06:04:47.548Z,58.39
2023-04-15T06:07:14.274Z,58.38
2023-04-15T06:09:41.302Z,61.12
2023-04-15T06:12:12.297Z,61.98
2023-04-15T06:14:39.505Z,61.70
2023-04-15T06:17:06.388Z,60.60
2023-04-15T06:19:33.528Z,59.63
2023-04-15T06:22:00.271Z,59.49
2023-04-15T06:24:26.807Z,56.47
2023-04-15T06:26:53.357Z,58.56
2023-04-15T06:29:19.998Z,58.16
2023-04-15T06:31:48.254Z,59.04
2023-04-15T06:34:14.812Z,58.88
2023-04-15T06:36:41.359Z,57.93
2023-04-15T06:39:07.891Z,56.96
2023-04-15T06:41:35.577Z,56.02
2023-04-15T06:44:02.310Z,55.69
2023-04-15T06:46:28.746Z,53.87
2023-04-15T06:48:55.289Z,54.03
2023-04-15T06:51:23.003Z,54.01
2023-04-15T06:53:50.518Z,53.68
2023-04-15T06:56:17.135Z,53.46
2023-04-15T06:58:43.671Z,53.99
2023-04-15T07:01:10.509Z,53.92
2023-04-15T07:03:37.248Z,51.79
2023-04-15T07:06:06.679Z,54.54
2023-04-15T07:08:33.900Z,54.99
2023-04-15T07:11:01.710Z,55.25
2023-04-15T07:13:28.377Z,55.76
2023-04-15T07:15:54.921Z,52.83
2023-04-15T07:18:21.564Z,55.09
2023-04-15T07:20:48.429Z,55.72
2023-04-15T07:23:15.054Z,55.88
2023-04-15T07:25:41.875Z,55.96
2023-04-15T07:28:08.380Z,52.57
2023-04-15T07:30:35.028Z,55.44
2023-04-15T07:33:02.347Z,56.01
2023-04-15T07:35:29.604Z,56.05
2023-04-15T07:37:56.497Z,56.41
2023-04-15T07:40:23.172Z,56.32
2023-04-15T07:42:49.952Z,57.33
2023-04-15T07:45:17.137Z,53.92
2023-04-15T07:47:43.765Z,56.83
2023-04-15T07:50:13.566Z,56.79
2023-04-15T07:52:41.607Z,56.74
2023-04-15T07:55:09.050Z,56.84
2023-04-15T07:57:36.425Z,57.08
2023-04-15T08:00:08.096Z,57.13
2023-04-15T08:02:40.454Z,56.91
2023-04-15T08:05:07.848Z,57.51
2023-04-15T08:07:38.036Z,57.61
2023-04-15T08:10:05.299Z,57.70
2023-04-15T08:12:34.513Z,57.37
2023-04-15T08:15:02.174Z,57.91
2023-04-15T08:17:28.783Z,57.68
2023-04-15T08:19:55.525Z,57.99
2023-04-15T08:22:22.724Z,57.88
2023-04-15T08:24:49.372Z,57.98
2023-04-15T08:27:16.210Z,58.04
2023-04-15T08:29:46.135Z,54.42
2023-04-15T08:32:12.944Z,57.98
2023-04-15T08:34:40.086Z,58.18
2023-04-15T08:37:08.372Z,57.94
2023-04-15T08:39:35.337Z,58.27
2023-04-15T08:42:03.928Z,58.32
2023-04-15T08:44:33.543Z,58.50
2023-04-15T08:47:03.533Z,58.22
2023-04-15T08:49:30.700Z,58.44
2023-04-15T08:51:59.830Z,58.66
2023-04-15T08:54:27.483Z,58.85
2023-04-15T08:56:54.754Z,58.60
2023-04-15T08:59:22.530Z,58.77
2023-04-15T09:01:51.146Z,58.36
2023-04-15T09:04:18.156Z,58.48
2023-04-15T09:06:44.990Z,58.81
2023-04-15T09:09:13.337Z,55.34
2023-04-15T09:11:40.562Z,58.30
2023-04-15T09:14:07.191Z,58.44
2023-04-15T09:17:04.072Z,57.48
2023-04-15T09:19:31.804Z,58.92
2023-04-15T09:21:59.677Z,59.39
2023-04-15T09:24:37.592Z,58.50
2023-04-15T09:27:04.675Z,59.15
2023-04-15T09:29:31.740Z,59.06
2023-04-15T09:32:14.112Z,58.40
2023-04-15T09:34:40.798Z,59.16
2023-04-15T09:37:08.053Z,55.78
2023-04-15T09:40:01.360Z,57.50
2023-04-15T09:42:29.568Z,59.01
2023-04-15T09:44:56.232Z,59.36
2023-04-15T09:47:32.954Z,58.36
2023-04-15T09:50:01.202Z,58.99
2023-04-15T09:52:29.085Z,59.00
2023-04-15T09:54:58.673Z,59.53
2023-04-15T09:57:25.539Z,59.33
2023-04-15T09:59:52.614Z,59.63
2023-04-15T10:02:23.275Z,59.90
2023-04-15T10:04:50.885Z,59.74
2023-04-15T10:07:20.742Z,59.85
2023-04-15T10:09:49.275Z,59.63
2023-04-15T10:12:20.388Z,59.64
2023-04-15T10:14:56.855Z,59.03
2023-04-15T10:17:27.912Z,59.89
2023-04-15T10:19:55.965Z,59.79
2023-04-15T10:22:23.492Z,60.23
2023-04-15T10:24:51.280Z,60.24
2023-04-15T10:27:18.219Z,60.24
2023-04-15T10:29:44.964Z,60.15
2023-04-15T10:32:11.665Z,56.94
2023-04-15T10:34:38.586Z,59.92
2023-04-15T10:37:05.318Z,60.31
2023-04-15T10:39:34.934Z,57.10
2023-04-15T10:42:20.246Z,58.52
2023-04-15T10:44:54.075Z,59.57
2023-04-15T10:47:22.211Z,60.17
2023-04-15T10:49:52.681Z,60.42
2023-04-15T10:52:24.391Z,60.39
2023-04-15T10:55:01.982Z,60.65
2023-04-15T10:57:38.677Z,60.04
2023-04-15T11:00:09.052Z,60.25
2023-04-15T11:02:42.076Z,60.63
2023-04-15T11:05:10.660Z,60.48
2023-04-15T11:07:37.427Z,60.55
2023-04-15T11:10:05.023Z,57.70
2023-04-15T11:12:38.988Z,59.85
2023-04-15T11:15:27.640Z,59.14
2023-04-15T11:17:54.290Z,60.98
2023-04-15T11:20:21.331Z,57.13
2023-04-15T11:23:14.800Z,59.63
2023-04-15T11:25:41.941Z,60.61
2023-04-15T11:28:08.629Z,60.83
2023-04-15T11:30:35.983Z,57.60
2023-04-15T11:33:05.354Z,60.22
2023-04-15T11:35:32.596Z,61.21
2023-04-15T11:38:02.961Z,61.16
2023-04-15T11:40:31.569Z,61.27
2023-04-15T11:43:22.195Z,59.78
2023-04-15T11:45:48.850Z,61.37
2023-04-15T11:48:15.659Z,58.02
2023-04-15T11:50:42.259Z,61.07
2023-04-15T11:53:11.759Z,61.14
2023-04-15T11:55:53.327Z,60.13
2023-04-15T11:58:21.511Z,61.34
2023-04-15T12:00:53.550Z,60.93
2023-04-15T12:03:24.903Z,61.62
2023-04-15T12:06:20.744Z,60.48
2023-04-15T12:09:18.373Z,60.28
2023-04-15T12:11:50.356Z,61.01
2023-04-15T12:14:16.880Z,61.68
2023-04-15T12:16:48.718Z,61.50
2023-04-15T12:19:25.314Z,61.41
2023-04-15T12:21:54.152Z,61.88
2023-04-15T12:24:23.182Z,62.04
2023-04-15T12:26:55.130Z,61.67
2023-04-15T12:29:26.816Z,61.79
2023-04-15T12:31:55.835Z,62.16
2023-04-15T12:34:44.935Z,60.70
2023-04-15T12:37:16.206Z,62.24
2023-04-15T12:39:44.366Z,62.06
2023-04-15T12:42:11.786Z,61.72
2023-04-15T12:44:39.661Z,62.07
2023-04-15T12:47:08.201Z,61.90
2023-04-15T12:49:35.420Z,62.04
2023-04-15T12:52:03.224Z,61.72
2023-04-15T12:54:31.549Z,61.92
2023-04-15T12:56:58.747Z,61.94
2023-04-15T12:59:25.414Z,62.09
2023-04-15T13:01:52.835Z,58.64
2023-04-15T13:04:20.787Z,61.52
2023-04-15T13:06:47.874Z,61.96
2023-04-15T13:09:15.854Z,61.92
2023-04-15T13:11:42.780Z,62.06
2023-04-15T13:14:09.765Z,62.07
2023-04-15T13:16:36.541Z,62.22
2023-04-15T13:19:04.387Z,62.38
2023-04-15T13:21:35.336Z,62.12
2023-04-15T13:24:03.082Z,62.08
2023-04-15T13:26:29.933Z,62.14
2023-04-15T13:28:56.880Z,58.84
2023-04-15T13:31:23.460Z,61.31
2023-04-15T13:33:50.067Z,61.40
2023-04-15T13:36:16.767Z,61.77
2023-04-15T13:38:43.325Z,58.69
2023-04-15T13:41:09.941Z,61.56
2023-04-15T13:43:36.738Z,61.51
2023-04-15T13:46:03.428Z,58.65
2023-04-15T13:48:30.126Z,61.45
2023-04-15T13:50:56.620Z,58.46
2023-04-15T13:53:28.169Z,61.06
2023-04-15T13:56:05.926Z,61.02
2023-04-15T13:58:32.641Z,61.47
2023-04-15T14:00:59.186Z,58.70
2023-04-15T14:03:26.079Z,60.99
2023-04-15T14:05:56.182Z,61.16
2023-04-15T14:08:23.838Z,61.33
2023-04-15T14:10:50.519Z,61.21
2023-04-15T14:13:17.002Z,58.79
2023-04-15T14:15:43.555Z,60.49
2023-04-15T14:18:10.117Z,60.73
2023-04-15T14:20:36.665Z,61.02
2023-04-15T14:23:03.203Z,60.63
2023-04-15T14:25:33.720Z,60.42
2023-04-15T14:28:01.311Z,60.44
2023-04-15T14:30:27.969Z,60.22
2023-04-15T14:32:54.498Z,57.89
2023-04-15T14:35:21.110Z,59.73
2023-04-15T14:37:47.599Z,57.73
2023-04-15T14:40:14.200Z,59.91
2023-04-15T14:42:40.758Z,59.69
2023-04-15T14:45:07.909Z,59.92
2023-04-15T14:47:34.563Z,60.14
2023-04-15T14:50:01.139Z,57.71
2023-04-15T14:52:27.733Z,59.62
2023-04-15T14:54:54.292Z,59.67
2023-04-15T14:57:20.831Z,59.71
2023-04-15T14:59:47.485Z,59.95
2023-04-15T15:02:17.299Z,57.58
2023-04-15T15:04:53.167Z,59.51
2023-04-15T15:07:19.848Z,60.17
2023-04-15T15:09:46.392Z,59.99
2023-04-15T15:12:13.016Z,60.02
2023-04-15T15:14:39.513Z,57.90
2023-04-15T15:17:12.229Z,59.60
2023-04-15T15:19:49.923Z,59.23
2023-04-15T15:22:44.094Z,58.85
2023-04-15T15:25:11.075Z,59.20
2023-04-15T15:27:38.400Z,58.85
2023-04-15T15:30:06.924Z,58.97
2023-04-15T15:32:33.639Z,58.98
2023-04-15T15:35:00.246Z,57.40
2023-04-15T15:37:26.874Z,58.19
2023-04-15T15:39:53.447Z,56.79
2023-04-15T15:42:20.073Z,58.36
2023-04-15T15:44:46.664Z,56.55
2023-04-15T15:47:13.257Z,58.13
2023-04-15T15:49:39.992Z,56.55
2023-04-15T15:52:06.833Z,57.82
2023-04-15T15:54:33.739Z,58.08
2023-04-15T15:57:00.468Z,58.40
2023-04-15T15:59:27.565Z,58.03
2023-04-15T16:01:54.306Z,58.18
2023-04-15T16:04:21.159Z,58.50
2023-04-15T16:06:48.543Z,58.41
2023-04-15T16:09:15.333Z,58.45
2023-04-15T16:11:41.992Z,58.49
2023-04-15T16:14:08.647Z,56.53
2023-04-15T16:16:35.782Z,57.82
2023-04-15T16:19:02.693Z,58.06
2023-04-15T16:21:29.580Z,57.89
2023-04-15T16:23:56.271Z,56.29
2023-04-15T16:26:23.347Z,57.58
2023-04-15T16:28:49.994Z,58.09
2023-04-15T16:31:16.575Z,56.02
2023-04-15T16:33:43.214Z,58.08
2023-04-15T16:36:09.831Z,56.26
2023-04-15T16:38:36.469Z,58.01
2023-04-15T16:41:03.041Z,55.89
2023-04-15T16:43:29.778Z,58.61
2023-04-15T16:45:56.611Z,58.48
2023-04-15T16:48:23.317Z,58.96
2023-04-15T16:50:49.888Z,56.34
2023-04-15T16:53:16.616Z,58.69
2023-04-15T16:55:43.308Z,58.66
2023-04-15T16:58:09.837Z,56.45
2023-04-15T17:00:37.078Z,58.52
2023-04-15T17:03:06.167Z,59.01
2023-04-15T17:05:33.253Z,58.86
2023-04-15T17:07:59.910Z,58.98
2023-04-15T17:10:26.842Z,56.65
2023-04-15T17:12:56.333Z,58.86
2023-04-15T17:15:23.016Z,59.11
2023-04-15T17:17:49.744Z,56.85
2023-04-15T17:20:17.669Z,58.83
2023-04-15T17:22:46.175Z,59.29
2023-04-15T17:25:14.003Z,59.68
2023-04-15T17:27:40.879Z,59.97
2023-04-15T17:30:08.542Z,59.84
2023-04-15T17:32:35.599Z,59.91
2023-04-15T17:35:06.559Z,59.80
2023-04-15T17:37:36.497Z,59.75
2023-04-15T17:40:04.036Z,59.53
2023-04-15T17:42:31.435Z,59.56
2023-04-15T17:44:57.958Z,57.29
2023-04-15T17:47:24.623Z,58.93
2023-04-15T17:49:51.334Z,59.28
2023-04-15T17:52:17.993Z,57.27
2023-04-15T17:54:46.102Z,58.86
2023-04-15T17:57:12.783Z,58.71
2023-04-15T17:59:44.036Z,56.83
2023-04-15T18:02:11.808Z,58.00
2023-04-15T18:04:39.270Z,58.31
2023-04-15T18:07:06.521Z,58.30
2023-04-15T18:09:33.165Z,58.34
2023-04-15T18:11:59.689Z,56.70
2023-04-15T18:14:34.097Z,58.32
2023-04-15T18:17:02.415Z,58.25
2023-04-15T18:19:30.399Z,58.35
2023-04-15T18:21:57.062Z,58.31
2023-04-15T18:24:23.617Z,56.44
2023-04-15T18:26:50.312Z,58.04
2023-04-15T18:29:17.050Z,56.47
2023-04-15T18:31:43.959Z,57.85
2023-04-15T18:34:10.942Z,58.06
2023-04-15T18:36:37.773Z,57.90
2023-04-15T18:39:12.631Z,58.10
2023-04-15T18:41:39.443Z,57.90
2023-04-15T18:44:06.362Z,57.79
2023-04-15T18:46:32.994Z,58.13
2023-04-15T18:48:59.598Z,56.60
2023-04-15T18:51:26.275Z,57.81
2023-04-15T18:53:52.858Z,56.47
2023-04-15T18:56:19.502Z,57.20
2023-04-15T18:59:09.276Z,56.33
2023-04-15T19:01:33.137Z,57.11
2023-04-15T19:03:59.917Z,56.93
2023-04-15T19:06:27.420Z,57.26
2023-04-15T19:08:54.427Z,57.37
2023-04-15T19:11:21.052Z,57.18
2023-04-15T19:13:47.654Z,55.92
2023-04-15T19:16:14.304Z,57.21
2023-04-15T19:18:40.860Z,55.75
2023-04-15T19:21:07.649Z,56.80
2023-04-15T19:23:34.359Z,57.41
2023-04-15T19:26:01.109Z,56.17
2023-04-15T19:28:28.464Z,57.47
2023-04-15T19:30:55.375Z,57.69
2023-04-15T19:33:22.212Z,57.53
2023-04-15T19:35:50.217Z,57.47
2023-04-15T21:52:30.314Z,56.80
2023-04-15T21:54:56.906Z,56.74
2023-04-15T21:57:23.426Z,56.99
2023-04-15T21:59:50.006Z,56.86
2023-04-15T22:02:16.846Z,57.39
2023-04-15T22:04:43.587Z,57.60
2023-04-15T22:07:10.106Z,55.86
2023-04-15T22:09:36.684Z,57.19
2023-04-15T22:12:04.417Z,57.39
2023-04-15T22:14:31.144Z,56.98
2023-04-15T22:16:57.642Z,55.92
2023-04-15T22:19:24.322Z,56.80
2023-04-15T22:21:51.369Z,55.57
2023-04-15T22:24:38.238Z,56.65
2023-04-15T22:27:04.584Z,57.25
2023-04-15T22:29:31.229Z,56.93
2023-04-15T22:31:58.061Z,57.18
2023-04-15T22:34:24.720Z,57.25
2023-04-15T22:36:51.977Z,55.56
2023-04-15T22:39:19.986Z,56.79
2023-04-15T22:41:46.909Z,57.13
2023-04-15T22:44:13.546Z,56.95
2023-04-15T22:46:40.038Z,55.80
2023-04-15T22:49:10.673Z,56.91
2023-04-15T22:51:38.302Z,57.41
2023-04-15T22:54:04.942Z,56.99
2023-04-15T22:56:31.470Z,55.91
2023-04-15T22:58:58.077Z,57.14
2023-04-15T23:01:24.626Z,55.59
2023-04-15T23:03:56.729Z,56.99
2023-04-15T23:06:31.556Z,57.36
2023-04-15T23:08:58.148Z,57.33
2023-04-15T23:11:24.744Z,57.58
2023-04-15T23:13:51.335Z,57.41
2023-04-15T23:16:17.913Z,57.42
2023-04-15T23:18:44.555Z,56.20
2023-04-15T23:21:11.210Z,57.46
2023-04-15T23:23:37.707Z,55.91
2023-04-15T23:26:04.436Z,57.64
2023-04-15T23:28:31.224Z,57.32
2023-04-15T23:31:00.327Z,57.54
2023-04-15T23:33:27.481Z,57.97
2023-04-15T23:35:54.065Z,57.88
2023-04-15T23:38:20.724Z,57.50
2023-04-15T23:40:47.227Z,55.90
2023-04-15T23:43:13.768Z,57.50
2023-04-15T23:45:40.397Z,57.62
2023-04-15T23:48:07.161Z,56.27
2023-04-15T23:50:33.898Z,57.64
2023-04-15T23:53:00.370Z,55.82
2023-04-15T23:55:27.002Z,58.18
2023-04-15T23:57:53.506Z,56.22
